This is the latest recevied weather packets stored in our database for station/object KF0PEC-15. If no packets are shown the sender has not sent any weather packets the latest 10 day(s).
| Time | Temp. | Humidity | Pressure | Rain* | Wind** | Luminosity | Snow |
|---|---|---|---|---|---|---|---|
| 1777237225 | 18.33° C | 34% | 995 hPa | 0 mm | - | 590 W/m² | - |
| 1777236729 | 18.89° C | 33% | 994.9 hPa | 0 mm | - | 385 W/m² | - |
| 1777236160 | 19.44° C | 32% | 994.5 hPa | 0 mm | - | 745 W/m² | - |
| 1777235630 | 18.89° C | 33% | 994.8 hPa | 0 mm | - | 761 W/m² | - |
| 1777235040 | 19.44° C | 32% | 994.7 hPa | 0 mm | - | 719 W/m² | - |
| 1777234471 | 18.89° C | 33% | 995.1 hPa | 0 mm | - | 857 W/m² | - |
| 1777233915 | 18.89° C | 33% | 995.3 hPa | 0 mm | - | 861 W/m² | - |
| 1777233417 | 18.89° C | 32% | 995.3 hPa | 0 mm | - | 871 W/m² | - |
| 1777232845 | 18.33° C | 35% | 996.2 hPa | 0 mm | - | 788 W/m² | - |
| 1777232249 | 18.89° C | 34% | 995.8 hPa | 0 mm | - | 360 W/m² | - |
| 1777231700 | 17.22° C | 37% | 997.2 hPa | 0 mm | - | 550 W/m² | - |
| 1777231210 | 17.22° C | 39% | 997 hPa | 0 mm | - | 304 W/m² | - |
| 1777230619 | 17.78° C | 37% | 997 hPa | 0 mm | - | 492 W/m² | - |
| 1777230140 | 17.22° C | 38% | 997.8 hPa | 0 mm | - | 768 W/m² | - |
| 1777229565 | 15.56° C | 41% | 999.4 hPa | 0 mm | - | 876 W/m² | - |
| 1777228975 | 15° C | 46% | 1000.2 hPa | 0 mm | - | 863 W/m² | - |
| 1777228470 | 11.67° C | 55% | 1003.2 hPa | 0 mm | - | 237 W/m² | - |
| 1777227900 | 12.78° C | 51% | 1003 hPa | 0 mm | - | 260 W/m² | - |
| 1777227375 | 13.33° C | 49% | 1002.7 hPa | 0 mm | - | 507 W/m² | - |
| 1777226860 | 13.33° C | 49% | 1002.9 hPa | 0 mm | - | 832 W/m² | - |
| 1777226369 | 11.67° C | 54% | 1004.5 hPa | 0 mm | - | 785 W/m² | - |
| 1777225792 | 12.22° C | 54% | 1004.4 hPa | 0 mm | - | 755 W/m² | - |
| 1777225305 | 11.67° C | 55% | 1004.8 hPa | 0 mm | - | 821 W/m² | - |
| 1777224790 | 11.11° C | 57% | 1005.7 hPa | 0 mm | - | 757 W/m² | - |
| 1777224260 | 10° C | 60% | 1006.4 hPa | 0 mm | - | 486 W/m² | - |
* Rain latest hour (hover to see other rain measurements)
** Current wind speed in m/s (hover to see current wind gust speed)